createdAt,value
2018-08-30T00:02:26.430Z,1.20
2018-08-30T00:04:55.090Z,1.30
2018-08-30T00:07:23.996Z,1.20
2018-08-30T00:09:52.602Z,1.03
2018-08-30T00:12:21.623Z,1.00
2018-08-30T00:14:50.230Z,1.00
2018-08-30T00:17:19.109Z,0.90
2018-08-30T00:19:47.702Z,1.20
2018-08-30T00:22:16.390Z,1.10
2018-08-30T00:24:44.981Z,1.30
2018-08-30T00:27:13.690Z,1.23
2018-08-30T00:29:42.600Z,1.30
2018-08-30T00:32:11.243Z,1.10
2018-08-30T00:34:40.470Z,1.03
2018-08-30T00:37:09.147Z,1.37
2018-08-30T00:39:37.973Z,1.10
2018-08-30T00:42:06.686Z,1.33
2018-08-30T00:44:35.458Z,0.90
2018-08-30T00:47:04.203Z,1.00
2018-08-30T00:49:32.969Z,1.20
2018-08-30T00:52:01.769Z,1.10
2018-08-30T00:54:30.518Z,1.23
2018-08-30T00:57:00.182Z,1.07
2018-08-30T00:59:28.793Z,1.07
2018-08-30T01:01:57.748Z,1.13
2018-08-30T01:04:26.382Z,1.03
2018-08-30T01:06:55.572Z,1.20
2018-08-30T01:09:24.108Z,1.20
2018-08-30T01:11:52.642Z,1.30
2018-08-30T01:14:22.088Z,1.37
2018-08-30T01:16:50.622Z,1.10
2018-08-30T01:19:19.766Z,1.30
2018-08-30T01:21:48.528Z,1.73
2018-08-30T01:24:17.445Z,1.37
2018-08-30T01:26:46.130Z,1.33
2018-08-30T01:29:15.068Z,1.40
2018-08-30T01:31:43.892Z,1.67
2018-08-30T01:34:14.170Z,1.60
2018-08-30T01:36:44.012Z,1.23
2018-08-30T01:39:13.162Z,1.60
2018-08-30T01:41:42.829Z,0.90
2018-08-30T01:44:12.917Z,1.40
2018-08-30T01:46:41.691Z,1.37
2018-08-30T01:49:10.754Z,0.90
2018-08-30T01:51:39.443Z,1.40
2018-08-30T01:54:09.016Z,1.43
2018-08-30T01:56:37.642Z,1.13
2018-08-30T01:59:06.265Z,1.10
2018-08-30T02:01:34.993Z,1.20
2018-08-30T02:04:04.015Z,1.23
2018-08-30T02:06:32.774Z,1.07
2018-08-30T02:09:01.422Z,1.27
2018-08-30T02:11:30.451Z,1.23
2018-08-30T02:13:59.074Z,1.40
2018-08-30T02:16:27.827Z,1.40
2018-08-30T02:18:56.514Z,1.20
2018-08-30T02:21:25.187Z,1.00
2018-08-30T02:23:53.818Z,1.00
2018-08-30T02:26:22.475Z,1.13
2018-08-30T02:28:52.071Z,1.50
2018-08-30T02:31:21.433Z,1.40
2018-08-30T02:33:50.974Z,1.20
2018-08-30T02:36:19.626Z,1.20
2018-08-30T02:38:48.447Z,1.00
2018-08-30T02:41:17.236Z,1.17
2018-08-30T02:43:46.155Z,1.30
2018-08-30T02:46:14.762Z,1.20
2018-08-30T02:48:43.423Z,1.20
2018-08-30T02:51:12.606Z,1.10
2018-08-30T02:53:41.450Z,1.23
2018-08-30T02:56:10.178Z,1.17
2018-08-30T02:58:38.765Z,0.83
2018-08-30T03:01:07.826Z,1.50
2018-08-30T03:03:36.425Z,1.40
2018-08-30T03:06:05.624Z,1.40
2018-08-30T03:08:34.349Z,1.23
2018-08-30T03:11:03.407Z,1.37
2018-08-30T03:13:32.088Z,1.20
2018-08-30T03:16:01.177Z,1.50
2018-08-30T03:18:29.718Z,1.20
2018-08-30T03:20:59.409Z,1.47
2018-08-30T03:23:28.041Z,1.20
2018-08-30T03:25:56.706Z,1.30
2018-08-30T03:28:25.370Z,1.30
2018-08-30T03:30:54.069Z,1.40
2018-08-30T03:33:23.027Z,1.40
2018-08-30T03:35:51.792Z,1.20
2018-08-30T03:38:20.599Z,1.20
2018-08-30T03:40:49.204Z,1.40
2018-08-30T03:43:18.029Z,1.30
2018-08-30T03:45:46.658Z,1.33
2018-08-30T03:48:16.065Z,1.33
2018-08-30T03:50:44.694Z,1.23
2018-08-30T03:53:13.350Z,1.60
2018-08-30T03:55:42.242Z,1.67
2018-08-30T03:58:10.818Z,1.40
2018-08-30T04:00:39.668Z,1.40
2018-08-30T04:03:08.201Z,1.30
2018-08-30T04:05:36.809Z,1.20
2018-08-30T04:08:05.718Z,1.30
2018-08-30T04:10:34.366Z,1.13
2018-08-30T04:13:03.208Z,1.53
2018-08-30T04:15:31.886Z,1.50
2018-08-30T04:18:00.652Z,1.97
2018-08-30T04:20:29.206Z,1.20
2018-08-30T04:22:58.305Z,1.57
2018-08-30T04:25:26.930Z,1.60
2018-08-30T04:27:55.792Z,1.40
2018-08-30T04:30:24.506Z,1.20
2018-08-30T04:32:53.138Z,1.50
2018-08-30T04:35:21.673Z,1.20
2018-08-30T04:37:50.310Z,1.20
2018-08-30T04:40:19.080Z,1.47
2018-08-30T04:42:48.021Z,1.23
2018-08-30T04:45:17.543Z,1.20
2018-08-30T04:47:46.155Z,1.40
2018-08-30T04:50:15.351Z,1.50
2018-08-30T04:52:44.005Z,1.17
2018-08-30T04:55:12.878Z,1.30
2018-08-30T04:57:41.606Z,1.57
2018-08-30T05:00:10.430Z,1.30
2018-08-30T05:02:38.994Z,1.60
2018-08-30T05:05:07.595Z,1.33
2018-08-30T05:07:36.324Z,1.43
2018-08-30T05:10:05.340Z,1.37
2018-08-30T05:12:34.266Z,1.40
2018-08-30T05:15:03.026Z,1.33
2018-08-30T05:17:31.992Z,1.40
2018-08-30T05:20:00.833Z,1.50
2018-08-30T05:22:29.715Z,1.47
2018-08-30T05:24:59.323Z,1.87
2018-08-30T05:27:28.011Z,1.70
2018-08-30T05:29:58.112Z,1.43
2018-08-30T05:32:27.617Z,1.63
2018-08-30T05:34:56.266Z,1.43
2018-08-30T05:37:30.702Z,1.50
2018-08-30T05:40:01.288Z,1.40
2018-08-30T05:42:30.834Z,1.40
2018-08-30T05:45:00.395Z,1.50
2018-08-30T05:47:29.086Z,2.10
2018-08-30T05:50:01.675Z,2.00
2018-08-30T05:52:30.598Z,1.63
2018-08-30T05:55:03.270Z,1.50
2018-08-30T05:57:32.014Z,1.77
2018-08-30T06:00:01.348Z,1.90
2018-08-30T06:02:30.414Z,1.70
2018-08-30T06:04:59.954Z,1.90
2018-08-30T06:07:32.910Z,2.10
2018-08-30T06:10:03.470Z,1.73
2018-08-30T06:12:36.527Z,1.67
2018-08-30T06:15:12.006Z,1.30
2018-08-30T06:17:50.716Z,1.80
2018-08-30T06:20:22.123Z,1.80
2018-08-30T06:22:51.510Z,1.60
2018-08-30T06:25:21.061Z,1.93
2018-08-30T06:27:53.816Z,1.73
2018-08-30T06:30:23.499Z,1.93
2018-08-30T06:32:52.182Z,2.00
2018-08-30T06:35:21.032Z,1.73
2018-08-30T06:37:49.690Z,1.73
2018-08-30T06:40:19.120Z,1.63
2018-08-30T06:42:48.014Z,2.00
2018-08-30T06:45:16.861Z,1.63
2018-08-30T06:47:45.686Z,1.73
2018-08-30T06:50:15.250Z,1.70
2018-08-30T06:52:44.939Z,1.80
2018-08-30T06:55:15.021Z,1.60
2018-08-30T06:57:43.704Z,2.23
2018-08-30T07:00:13.239Z,2.20
2018-08-30T07:02:41.894Z,1.90
2018-08-30T07:05:10.888Z,1.87
2018-08-30T07:07:41.474Z,2.03
2018-08-30T07:10:10.248Z,1.97
2018-08-30T07:12:38.830Z,1.70
2018-08-30T07:15:07.852Z,1.70
2018-08-30T07:17:36.500Z,1.90
2018-08-30T07:20:05.426Z,1.83
2018-08-30T07:22:35.063Z,1.90
2018-08-30T07:25:03.751Z,1.90
2018-08-30T07:27:32.358Z,1.90
2018-08-30T07:30:01.154Z,1.80
2018-08-30T07:32:29.655Z,2.00
2018-08-30T07:34:58.439Z,1.70
2018-08-30T07:37:27.378Z,2.00
2018-08-30T07:39:56.167Z,1.90
2018-08-30T07:42:24.838Z,1.52
2018-08-30T07:44:53.580Z,1.77
2018-08-30T07:47:22.834Z,1.57
2018-08-30T07:49:51.430Z,1.72
2018-08-30T07:52:20.711Z,1.90
2018-08-30T07:54:50.123Z,2.00
2018-08-30T07:57:19.165Z,1.60
2018-08-30T07:59:47.767Z,1.40
2018-08-30T08:02:16.466Z,1.90
2018-08-30T08:04:45.373Z,1.90
2018-08-30T08:07:15.199Z,1.67
2018-08-30T08:09:43.975Z,1.70
2018-08-30T08:12:12.813Z,1.60
2018-08-30T08:14:41.760Z,2.00
2018-08-30T08:17:10.246Z,1.63
2018-08-30T08:19:39.520Z,2.05
2018-08-30T08:22:09.038Z,1.87
2018-08-30T08:24:38.042Z,1.40
2018-08-30T08:27:06.628Z,1.87
2018-08-30T08:29:35.549Z,1.50
2018-08-30T08:32:04.190Z,1.80
2018-08-30T08:34:32.839Z,2.00
2018-08-30T08:37:01.402Z,1.65
2018-08-30T08:39:30.067Z,1.62
2018-08-30T08:41:58.889Z,1.72
2018-08-30T08:44:27.374Z,1.65
2018-08-30T08:46:56.329Z,1.70
2018-08-30T08:49:24.988Z,1.90
2018-08-30T08:51:53.675Z,1.75
2018-08-30T08:54:22.310Z,1.57
2018-08-30T08:56:50.976Z,1.70
2018-08-30T08:59:20.322Z,1.52
2018-08-30T09:01:49.043Z,1.90
2018-08-30T09:04:17.926Z,1.50
2018-08-30T09:06:47.322Z,1.57
2018-08-30T09:09:17.490Z,1.82
2018-08-30T09:11:46.295Z,1.70
2018-08-30T09:14:15.266Z,1.37
2018-08-30T09:16:43.818Z,1.65
2018-08-30T09:19:12.811Z,1.70
2018-08-30T09:21:41.582Z,1.67
2018-08-30T09:24:10.158Z,1.40
2018-08-30T09:26:38.784Z,1.50
2018-08-30T09:29:07.377Z,1.65
2018-08-30T09:31:36.130Z,1.47
2018-08-30T09:34:05.317Z,1.50
2018-08-30T09:36:34.103Z,1.57
2018-08-30T09:39:02.789Z,1.60
2018-08-30T09:41:31.678Z,1.80
2018-08-30T09:44:00.398Z,1.80
2018-08-30T09:46:30.201Z,1.35
2018-08-30T09:48:58.786Z,1.52
2018-08-30T09:51:27.643Z,1.50
2018-08-30T09:53:56.436Z,1.70
2018-08-30T09:56:25.238Z,1.40
2018-08-30T09:58:54.662Z,1.90
2018-08-30T10:01:28.636Z,2.45
2018-08-30T10:03:57.218Z,2.27
2018-08-30T10:06:26.531Z,2.05
2018-08-30T10:08:55.149Z,3.65
2018-08-30T10:11:24.150Z,1.72
2018-08-30T10:13:52.732Z,2.22
2018-08-30T10:16:21.295Z,1.70
2018-08-30T10:18:49.873Z,1.47
2018-08-30T10:21:18.568Z,1.55
2018-08-30T10:23:47.686Z,1.35
2018-08-30T10:26:16.196Z,1.35
2018-08-30T10:28:45.789Z,1.77
2018-08-30T10:31:14.470Z,1.40
2018-08-30T10:33:43.752Z,1.52
2018-08-30T10:36:12.374Z,1.80
2018-08-30T10:38:41.379Z,1.45
2018-08-30T10:41:10.030Z,1.52
2018-08-30T10:43:39.542Z,1.70
2018-08-30T10:46:08.270Z,1.87
2018-08-30T10:48:36.919Z,1.60
2018-08-30T10:51:05.822Z,1.90
2018-08-30T10:53:34.508Z,1.55
2018-08-30T10:56:03.585Z,1.85
2018-08-30T10:58:32.392Z,1.62
2018-08-30T11:01:01.410Z,1.62
2018-08-30T11:03:30.063Z,1.65
2018-08-30T11:05:58.924Z,1.50
2018-08-30T11:08:27.502Z,2.00
2018-08-30T11:10:56.253Z,1.62
2018-08-30T11:13:25.090Z,1.57
2018-08-30T11:15:53.700Z,1.67
2018-08-30T11:18:24.106Z,1.62
2018-08-30T11:20:52.699Z,1.95
2018-08-30T11:23:21.908Z,1.80
2018-08-30T11:25:50.547Z,1.72
2018-08-30T11:28:19.796Z,1.65
2018-08-30T11:30:48.490Z,1.75
2018-08-30T11:33:18.170Z,1.40
2018-08-30T11:35:46.894Z,1.80
2018-08-30T11:38:15.946Z,1.35
2018-08-30T11:40:44.689Z,1.70
2018-08-30T11:43:13.383Z,1.55
2018-08-30T11:45:42.059Z,1.80
2018-08-30T11:48:10.810Z,1.75
2018-08-30T11:50:40.178Z,1.42
2018-08-30T11:53:08.793Z,1.75
2018-08-30T11:55:37.435Z,1.70
2018-08-30T11:58:06.066Z,1.57
2018-08-30T12:00:34.755Z,1.50
2018-08-30T12:03:03.533Z,1.42
2018-08-30T12:05:33.140Z,1.42
2018-08-30T12:08:01.865Z,1.55
2018-08-30T12:10:31.072Z,1.52
2018-08-30T12:12:59.729Z,1.60
2018-08-30T12:15:29.023Z,1.30
2018-08-30T12:17:57.693Z,1.45
2018-08-30T12:20:26.368Z,1.47
2018-08-30T12:22:55.166Z,1.40
2018-08-30T12:25:23.749Z,1.35
2018-08-30T12:27:53.120Z,1.40
2018-08-30T12:30:21.960Z,1.50
2018-08-30T12:32:50.947Z,1.57
2018-08-30T12:35:19.878Z,1.72
2018-08-30T12:37:48.669Z,1.35
2018-08-30T12:40:18.158Z,1.50
2018-08-30T12:42:46.796Z,1.85
2018-08-30T12:45:15.722Z,1.50
2018-08-30T12:47:44.315Z,2.12
2018-08-30T12:50:14.874Z,1.37
2018-08-30T12:52:43.281Z,1.72
2018-08-30T12:55:12.718Z,1.55
2018-08-30T12:57:41.374Z,1.30
2018-08-30T13:00:12.704Z,1.60
2018-08-30T13:02:41.323Z,1.50
2018-08-30T13:05:12.133Z,1.62
2018-08-30T13:07:40.739Z,1.60
2018-08-30T13:10:09.591Z,1.70
2018-08-30T13:12:38.639Z,1.50
2018-08-30T13:15:07.781Z,1.62
2018-08-30T13:17:36.155Z,1.72
2018-08-30T13:20:05.313Z,2.08
2018-08-30T13:22:33.805Z,2.08
2018-08-30T13:25:03.097Z,1.62
2018-08-30T13:27:31.696Z,1.85
2018-08-30T13:30:00.374Z,1.70
2018-08-30T13:32:29.066Z,2.20
2018-08-30T13:34:58.699Z,1.80
2018-08-30T13:37:27.146Z,1.60
2018-08-30T13:39:56.577Z,1.87
2018-08-30T13:42:25.300Z,1.70
2018-08-30T13:44:53.999Z,1.70
2018-08-30T13:47:23.620Z,1.60
2018-08-30T13:49:51.905Z,1.95
2018-08-30T13:52:21.152Z,1.60
2018-08-30T13:54:49.773Z,1.98
2018-08-30T13:57:18.565Z,1.90
2018-08-30T13:59:47.218Z,2.08
2018-08-30T14:02:15.892Z,2.10
2018-08-30T14:04:44.525Z,1.75
2018-08-30T14:07:13.408Z,2.00
2018-08-30T14:09:42.078Z,2.50
2018-08-30T14:12:11.049Z,2.10
2018-08-30T14:14:40.463Z,2.12
2018-08-30T14:17:08.701Z,2.50
2018-08-30T14:19:37.758Z,2.02
2018-08-30T14:22:06.546Z,1.98
2018-08-30T14:24:35.365Z,2.12
2018-08-30T14:27:04.019Z,2.75
2018-08-30T14:29:32.848Z,1.95
2018-08-30T14:32:01.775Z,2.47
2018-08-30T14:34:30.493Z,2.02
2018-08-30T14:36:59.942Z,2.72
2018-08-30T14:39:28.669Z,1.90
2018-08-30T14:41:58.377Z,2.30
2018-08-30T14:44:26.915Z,2.22
2018-08-30T14:46:55.785Z,2.30
2018-08-30T14:49:27.238Z,1.90
2018-08-30T14:51:56.306Z,2.70
2018-08-30T14:54:25.024Z,2.80
2018-08-30T14:56:54.091Z,2.37
2018-08-30T14:59:22.886Z,2.30
2018-08-30T15:01:52.601Z,2.45
2018-08-30T15:04:21.930Z,5.40
2018-08-30T15:06:50.939Z,2.98
2018-08-30T15:09:19.582Z,2.22
2018-08-30T15:11:48.698Z,2.58
2018-08-30T15:14:18.720Z,2.70
2018-08-30T15:16:48.197Z,3.30
2018-08-30T15:19:16.682Z,2.02
2018-08-30T15:21:45.492Z,2.50
2018-08-30T15:24:14.259Z,2.72
2018-08-30T15:26:46.426Z,3.22
2018-08-30T15:29:15.186Z,3.02
2018-08-30T15:31:44.034Z,2.52
2018-08-30T15:34:13.362Z,3.02
2018-08-30T15:36:42.301Z,2.85
2018-08-30T15:39:11.512Z,2.87
2018-08-30T15:41:40.520Z,2.20
2018-08-30T15:44:09.062Z,2.52
2018-08-30T15:46:37.772Z,2.98
2018-08-30T15:49:06.970Z,2.67
2018-08-30T15:51:35.548Z,3.27
2018-08-30T15:54:04.682Z,2.67
2018-08-30T15:56:33.270Z,2.67
2018-08-30T15:59:02.382Z,2.85
2018-08-30T16:01:31.062Z,3.05
2018-08-30T16:03:59.755Z,3.10
2018-08-30T16:06:28.586Z,3.08
2018-08-30T16:08:57.155Z,2.92
2018-08-30T16:11:26.267Z,3.10
2018-08-30T16:13:54.545Z,3.10
2018-08-30T16:16:23.543Z,3.00
2018-08-30T16:18:52.214Z,2.92
2018-08-30T16:21:20.817Z,2.70
2018-08-30T16:23:50.523Z,3.12
2018-08-30T16:26:19.224Z,3.20
2018-08-30T16:28:47.879Z,2.98
2018-08-30T16:31:16.807Z,3.15
2018-08-30T16:33:46.063Z,3.35
2018-08-30T16:36:14.803Z,2.80
2018-08-30T16:38:44.658Z,3.25
2018-08-30T16:41:13.417Z,3.12
2018-08-30T16:43:42.239Z,2.90
2018-08-30T16:46:11.441Z,3.30
2018-08-30T16:48:40.359Z,3.12
2018-08-30T16:51:09.144Z,3.02
2018-08-30T16:53:37.867Z,3.10
2018-08-30T16:56:06.626Z,3.00
2018-08-30T16:58:35.289Z,2.77
2018-08-30T17:01:03.970Z,2.85
2018-08-30T17:03:32.578Z,2.50
2018-08-30T17:06:01.794Z,3.27
2018-08-30T17:08:30.416Z,3.20
2018-08-30T17:10:59.426Z,3.40
2018-08-30T17:13:28.162Z,2.67
2018-08-30T17:15:57.195Z,2.72
2018-08-30T17:18:26.500Z,2.95
2018-08-30T17:20:56.628Z,3.20
2018-08-30T17:23:25.836Z,3.08
2018-08-30T17:25:54.567Z,2.90
2018-08-30T17:28:23.266Z,2.92
2018-08-30T17:30:51.946Z,2.70
2018-08-30T17:33:20.653Z,3.08
2018-08-30T17:35:49.495Z,3.10
2018-08-30T17:38:18.645Z,2.95
2018-08-30T17:40:47.303Z,2.80
2018-08-30T17:43:16.016Z,3.65
2018-08-30T17:45:44.655Z,3.50
2018-08-30T17:48:13.245Z,3.00
2018-08-30T17:50:41.743Z,3.10
2018-08-30T17:53:10.918Z,3.75
2018-08-30T17:55:39.669Z,3.98
2018-08-30T17:58:08.591Z,3.22
2018-08-30T18:00:37.414Z,3.50
2018-08-30T18:03:06.219Z,3.75
2018-08-30T18:05:34.926Z,3.08
2018-08-30T18:08:04.780Z,3.52
2018-08-30T18:10:33.679Z,3.60
2018-08-30T18:13:02.390Z,3.85
2018-08-30T18:15:31.484Z,3.15
2018-08-30T18:18:00.235Z,3.58
2018-08-30T18:20:33.877Z,4.58
2018-08-30T18:23:02.422Z,3.90
2018-08-30T18:25:31.527Z,3.75
2018-08-30T18:28:00.110Z,3.52
2018-08-30T18:30:28.717Z,4.30
2018-08-30T18:32:57.326Z,3.40
2018-08-30T18:35:26.927Z,3.92
2018-08-30T18:37:56.410Z,3.70
2018-08-30T18:40:25.076Z,3.62
2018-08-30T18:42:54.089Z,3.67
2018-08-30T18:45:22.829Z,3.70
2018-08-30T18:47:51.762Z,3.47
2018-08-30T18:50:20.585Z,4.17
2018-08-30T18:52:49.338Z,3.20
2018-08-30T18:55:18.094Z,3.30
2018-08-30T18:57:46.859Z,3.25
2018-08-30T19:00:16.437Z,3.80
2018-08-30T19:02:45.342Z,4.03
2018-08-30T19:05:14.817Z,3.35
2018-08-30T19:07:43.506Z,3.98
2018-08-30T19:10:12.700Z,3.77
2018-08-30T19:12:41.384Z,3.58
2018-08-30T19:15:15.603Z,3.60
2018-08-30T19:17:50.167Z,3.55
2018-08-30T19:20:19.061Z,2.90
2018-08-30T19:22:47.994Z,2.90
2018-08-30T19:25:20.812Z,3.00
2018-08-30T19:27:49.397Z,3.57
2018-08-30T19:30:23.480Z,3.27
2018-08-30T19:32:52.106Z,3.23
2018-08-30T19:35:26.789Z,3.27
2018-08-30T19:37:56.434Z,3.33
2018-08-30T19:40:30.314Z,3.73
2018-08-30T19:43:00.024Z,3.10
2018-08-30T19:45:31.122Z,3.47
2018-08-30T19:48:00.082Z,4.13
2018-08-30T19:50:29.934Z,4.33
2018-08-30T19:52:58.811Z,3.57
2018-08-30T19:55:28.356Z,3.00
2018-08-30T19:57:57.183Z,3.57
2018-08-30T20:00:26.143Z,3.43
2018-08-30T20:02:54.736Z,3.27
2018-08-30T20:05:23.648Z,3.10
2018-08-30T20:07:52.397Z,3.40
2018-08-30T20:10:21.919Z,3.40
2018-08-30T20:12:50.689Z,3.40
2018-08-30T20:15:19.446Z,3.13
2018-08-30T20:17:48.024Z,3.10
2018-08-30T20:20:16.758Z,2.95
2018-08-30T20:22:45.736Z,3.33
2018-08-30T20:25:14.423Z,3.23
2018-08-30T20:27:43.371Z,3.40
2018-08-30T20:30:12.025Z,3.50
2018-08-30T20:32:40.658Z,2.90
2018-08-30T20:35:09.592Z,2.87
2018-08-30T20:37:38.514Z,3.07
2018-08-30T20:40:07.230Z,3.87
2018-08-30T20:42:35.999Z,3.60
2018-08-30T20:45:04.726Z,3.15
2018-08-30T20:47:33.398Z,3.57
2018-08-30T20:50:02.259Z,3.60
2018-08-30T20:52:31.099Z,3.00
2018-08-30T20:54:59.934Z,3.60
2018-08-30T20:57:28.700Z,3.23
2018-08-30T20:59:57.506Z,3.57
2018-08-30T21:02:26.699Z,3.23
2018-08-30T21:04:55.277Z,3.20
2018-08-30T21:07:24.119Z,3.70
2018-08-30T21:09:52.830Z,3.33
2018-08-30T21:12:21.762Z,4.07
2018-08-30T21:14:50.484Z,3.07
2018-08-30T21:17:19.580Z,3.57
2018-08-30T21:19:48.320Z,3.73
2018-08-30T21:22:16.974Z,3.10
2018-08-30T21:24:45.942Z,3.47
2018-08-30T21:27:14.755Z,3.37
2018-08-30T21:29:43.350Z,3.57
2018-08-30T21:32:12.219Z,3.10
2018-08-30T21:34:40.990Z,3.20
2018-08-30T21:37:09.575Z,3.37
2018-08-30T21:39:38.465Z,3.50
2018-08-30T21:42:07.138Z,3.23
2018-08-30T21:44:36.050Z,3.97
2018-08-30T21:47:04.873Z,3.67
2018-08-30T21:49:34.046Z,3.13
2018-08-30T21:52:02.713Z,2.80
2018-08-30T21:54:31.791Z,3.70
2018-08-30T21:57:00.590Z,3.13
2018-08-30T21:59:29.227Z,3.63
2018-08-30T22:01:57.990Z,3.37
2018-08-30T22:04:27.495Z,3.17
2018-08-30T22:06:56.298Z,3.63
2018-08-30T22:09:25.040Z,3.30
2018-08-30T22:11:54.410Z,3.87
2018-08-30T22:14:24.177Z,3.47
2018-08-30T22:16:53.198Z,3.27
2018-08-30T22:19:22.034Z,3.50
2018-08-30T22:21:50.926Z,3.13
2018-08-30T22:24:19.588Z,3.60
2018-08-30T22:26:48.634Z,3.57
2018-08-30T22:29:17.642Z,3.40
2018-08-30T22:31:46.817Z,3.27
2018-08-30T22:34:15.354Z,3.40
2018-08-30T22:36:43.989Z,3.70
2018-08-30T22:39:12.546Z,3.37
2018-08-30T22:41:41.106Z,3.40
2018-08-30T22:44:10.126Z,3.50
2018-08-30T22:46:38.658Z,3.27
2018-08-30T22:49:07.795Z,3.50
2018-08-30T22:51:36.450Z,4.00
2018-08-30T22:54:05.582Z,3.87
2018-08-30T22:56:34.720Z,3.63
2018-08-30T22:59:03.489Z,3.33
2018-08-30T23:01:32.494Z,3.53
2018-08-30T23:04:01.079Z,2.70
2018-08-30T23:06:30.163Z,4.37
2018-08-30T23:08:58.766Z,3.53
2018-08-30T23:11:28.010Z,3.63
2018-08-30T23:13:56.798Z,3.47
2018-08-30T23:16:27.005Z,3.33
2018-08-30T23:18:55.585Z,3.53
2018-08-30T23:21:24.697Z,3.60
2018-08-30T23:23:53.484Z,3.70
2018-08-30T23:26:22.455Z,3.53
2018-08-30T23:28:51.066Z,3.13
2018-08-30T23:31:19.854Z,3.90
2018-08-30T23:33:48.522Z,3.23
2018-08-30T23:36:17.863Z,3.60
2018-08-30T23:38:46.642Z,3.10
2018-08-30T23:41:15.469Z,3.37
2018-08-30T23:43:44.235Z,4.03
2018-08-30T23:46:12.862Z,3.40
2018-08-30T23:48:41.916Z,3.47
2018-08-30T23:51:10.582Z,3.30
2018-08-30T23:53:39.638Z,3.20
2018-08-30T23:56:08.448Z,3.87
2018-08-30T23:58:48.255Z,3.07
